Time;durP1;ratioP1;P1;durP2;ratioP2;P2;SDS_P1;SDS_P2;PMS_P1;PMS_P2;Temp;Humidity;BMP_temperature;BMP_pressure;BME280_temperature;BME280_humidity;BME280_pressure;Samples;Min_cycle;Max_cycle;Signal;HPM_P1;HPM_P2
2021/08/22 00:00:25;;;;;;;8.80;5.55;;;23.90;85.10;;;;;;5093050;28;20046;-75
2021/08/22 00:02:51;;;;;;;9.30;5.75;;;23.80;85.20;;;;;;5074825;28;20114;-75
2021/08/22 00:05:16;;;;;;;11.07;5.75;;;23.90;85.50;;;;;;5092793;28;20028;-75
2021/08/22 00:07:42;;;;;;;9.02;5.53;;;23.80;85.40;;;;;;5092770;28;20107;-75
2021/08/22 00:10:09;;;;;;;10.00;5.50;;;23.90;85.50;;;;;;5092834;28;20024;-75
2021/08/22 00:12:34;;;;;;;10.95;6.28;;;23.80;85.40;;;;;;5092698;28;20445;-75
2021/08/22 00:15:00;;;;;;;8.70;5.72;;;23.80;85.20;;;;;;5092813;28;20024;-75
2021/08/22 00:17:26;;;;;;;8.43;6.18;;;23.80;85.20;;;;;;5074470;28;20031;-75
2021/08/22 00:19:51;;;;;;;6.25;5.50;;;23.90;85.20;;;;;;5092592;28;20032;-75
2021/08/22 00:22:17;;;;;;;8.20;5.25;;;23.90;85.50;;;;;;5092816;28;20110;-75
2021/08/22 00:24:43;;;;;;;7.10;5.05;;;23.80;85.70;;;;;;5092406;28;20028;-75
2021/08/22 00:27:08;;;;;;;8.23;5.45;;;23.80;85.70;;;;;;5092565;28;20430;-76
2021/08/22 00:29:34;;;;;;;8.20;5.45;;;23.80;85.70;;;;;;5092549;28;20017;-75
2021/08/22 00:32:01;;;;;;;7.88;5.57;;;23.80;85.50;;;;;;5092478;28;20048;-75
2021/08/22 00:34:27;;;;;;;9.05;4.70;;;23.80;85.70;;;;;;5092582;28;20024;-75
2021/08/22 00:36:54;;;;;;;10.30;5.78;;;23.80;85.80;;;;;;5092292;28;20076;-75
2021/08/22 00:39:22;;;;;;;8.82;4.97;;;23.80;85.90;;;;;;5092321;28;20028;-75
2021/08/22 00:41:48;;;;;;;9.93;4.80;;;23.80;86.10;;;;;;5092258;28;20505;-75
2021/08/22 00:44:13;;;;;;;9.77;4.90;;;23.80;86.00;;;;;;5092166;28;20027;-75
2021/08/22 00:46:39;;;;;;;6.20;4.43;;;23.70;87.00;;;;;;5073857;28;20510;-75
2021/08/22 00:49:06;;;;;;;6.20;4.88;;;23.70;86.40;;;;;;5092061;28;20178;-75
2021/08/22 00:51:33;;;;;;;8.57;4.82;;;23.70;86.20;;;;;;5092064;28;20031;-75
2021/08/22 00:53:59;;;;;;;6.57;4.65;;;23.70;86.40;;;;;;5091996;28;20057;-75
2021/08/22 00:56:25;;;;;;;6.05;4.57;;;23.60;86.60;;;;;;5091927;28;20028;-75
2021/08/22 00:58:50;;;;;;;6.93;4.35;;;23.60;86.90;;;;;;5073751;28;20073;-75
2021/08/22 01:01:20;;;;;;;7.03;4.25;;;23.60;86.80;;;;;;5073882;28;20437;-75
2021/08/22 01:03:54;;;;;;;6.28;4.28;;;23.60;86.80;;;;;;5073695;28;20487;-75
2021/08/22 01:06:26;;;;;;;10.38;4.45;;;23.60;86.90;;;;;;5073762;28;20028;-75
2021/08/22 01:09:26;;;;;;;10.82;5.03;;;23.60;87.00;;;;;;5073579;28;20126;-75
2021/08/22 01:11:53;;;;;;;8.23;4.68;;;23.60;86.90;;;;;;5091913;28;20414;-75
2021/08/22 01:14:29;;;;;;;8.98;4.50;;;23.60;87.00;;;;;;5091859;28;20051;-75
2021/08/22 01:16:58;;;;;;;9.20;3.70;;;23.60;87.10;;;;;;5091899;28;20027;-75
2021/08/22 01:19:41;;;;;;;6.68;4.40;;;23.60;87.30;;;;;;5073621;28;20028;-75
2021/08/22 01:22:08;;;;;;;8.98;4.30;;;23.60;87.50;;;;;;5073480;28;20028;-75
2021/08/22 01:24:39;;;;;;;5.22;4.25;;;23.60;87.30;;;;;;5091491;28;20024;-75
2021/08/22 01:27:07;;;;;;;5.25;4.32;;;23.50;87.70;;;;;;5091503;28;20042;-75
2021/08/22 01:29:58;;;;;;;8.05;5.30;;;23.40;87.70;;;;;;5091523;28;20031;-75
2021/08/22 01:32:40;;;;;;;11.57;4.45;;;23.40;87.80;;;;;;5072759;28;20032;-75
2021/08/22 01:35:07;;;;;;;;;;;23.40;87.90;;;;;;5091808;28;20074;-75
2021/08/22 01:37:39;;;;;;;5.05;4.55;;;23.50;87.90;;;;;;5091530;28;19904;-75
2021/08/22 01:40:07;;;;;;;6.95;3.88;;;23.50;87.90;;;;;;5091131;28;20035;-75
2021/08/22 01:42:35;;;;;;;5.50;3.88;;;23.50;87.80;;;;;;5091311;28;20070;-75
2021/08/22 01:45:07;;;;;;;4.82;4.18;;;23.40;88.00;;;;;;5091342;28;20063;-75
2021/08/22 01:47:34;;;;;;;4.90;4.47;;;23.50;88.30;;;;;;5091414;28;20076;-76
2021/08/22 01:50:01;;;;;;;5.38;3.95;;;23.40;88.20;;;;;;5091263;28;20053;-75
2021/08/22 01:52:28;;;;;;;4.53;3.80;;;23.50;88.30;;;;;;5091279;28;20115;-75
2021/08/22 01:54:54;;;;;;;6.25;4.35;;;23.40;88.20;;;;;;5091395;28;20024;-75
2021/08/22 01:57:20;;;;;;;6.97;3.83;;;23.40;88.50;;;;;;5090355;28;20032;-75
2021/08/22 01:59:46;;;;;;;4.65;3.67;;;23.30;88.70;;;;;;5088810;28;20070;-75
2021/08/22 02:02:12;;;;;;;4.90;3.70;;;23.30;88.70;;;;;;5073333;28;20487;-75
2021/08/22 02:04:43;;;;;;;6.15;3.40;;;23.30;88.60;;;;;;5091177;28;20024;-75
2021/08/22 02:07:14;;;;;;;7.13;3.85;;;23.40;88.50;;;;;;5090984;28;20056;-75
2021/08/22 02:09:53;;;;;;;4.57;4.10;;;23.40;88.50;;;;;;5072887;28;20020;-75
2021/08/22 02:12:21;;;;;;;8.00;3.92;;;23.30;88.70;;;;;;5091220;28;20602;-75
2021/08/22 02:14:57;;;;;;;5.93;5.00;;;23.30;88.80;;;;;;5091203;28;20095;-75
2021/08/22 02:17:27;;;;;;;4.30;3.35;;;23.30;88.80;;;;;;5091057;28;20506;-75
2021/08/22 02:19:54;;;;;;;4.25;3.85;;;23.30;89.10;;;;;;5090958;28;20016;-75
2021/08/22 02:22:20;;;;;;;4.32;4.00;;;23.20;89.30;;;;;;5091147;28;20035;-75
2021/08/22 02:24:47;;;;;;;4.30;3.90;;;23.20;89.30;;;;;;5090891;28;20028;-75
2021/08/22 02:27:13;;;;;;;5.10;3.88;;;23.20;89.60;;;;;;5090897;28;20024;-75
2021/08/22 02:29:47;;;;;;;7.57;4.38;;;23.10;89.80;;;;;;5091130;28;20059;-75
2021/08/22 02:32:13;;;;;;;5.05;3.70;;;23.10;90.00;;;;;;5072945;28;20024;-75
2021/08/22 02:34:39;;;;;;;5.28;3.72;;;23.10;90.10;;;;;;5072540;28;20021;-75
2021/08/22 02:37:04;;;;;;;7.30;4.50;;;23.00;90.10;;;;;;5090881;28;20107;-75
2021/08/22 02:39:30;;;;;;;5.65;4.13;;;23.00;90.20;;;;;;5091000;28;20036;-75
2021/08/22 02:41:56;;;;;;;7.75;4.05;;;23.00;90.20;;;;;;5090910;28;20020;-75
2021/08/22 02:44:21;;;;;;;5.10;4.63;;;23.00;90.40;;;;;;5090675;28;20483;-75
2021/08/22 02:46:47;;;;;;;8.40;4.07;;;23.00;90.40;;;;;;5072767;28;20020;-75
2021/08/22 02:49:13;;;;;;;5.57;4.15;;;23.00;90.50;;;;;;5090635;28;20561;-75
2021/08/22 02:51:38;;;;;;;7.28;4.40;;;22.90;90.50;;;;;;5073072;28;20055;-75
2021/08/22 02:54:04;;;;;;;6.38;4.28;;;22.90;90.60;;;;;;5094418;28;20036;-75
2021/08/22 02:56:30;;;;;;;4.47;4.15;;;22.90;90.60;;;;;;5094283;28;20050;-75
2021/08/22 02:58:55;;;;;;;5.53;4.30;;;22.90;90.60;;;;;;5094351;28;20126;-75
2021/08/22 03:01:21;;;;;;;5.85;3.75;;;22.90;90.70;;;;;;5076298;28;20081;-75
2021/08/22 03:03:47;;;;;;;4.45;4.05;;;22.90;90.60;;;;;;5075890;28;20116;-75
2021/08/22 03:06:12;;;;;;;10.48;4.57;;;23.00;90.60;;;;;;5094151;28;20475;-75
2021/08/22 03:08:38;;;;;;;5.20;3.83;;;22.90;90.60;;;;;;5093977;28;20073;-75
2021/08/22 03:11:04;;;;;;;5.13;4.55;;;23.00;90.60;;;;;;5094064;28;20020;-75
2021/08/22 03:13:29;;;;;;;5.57;4.15;;;23.00;90.60;;;;;;5075937;28;20012;-75
2021/08/22 03:15:55;;;;;;;7.75;4.53;;;23.00;90.60;;;;;;5075861;28;20024;-75
2021/08/22 03:18:21;;;;;;;4.60;4.20;;;23.00;90.70;;;;;;5093791;28;20471;-75
2021/08/22 03:20:47;;;;;;;8.50;4.03;;;22.90;90.70;;;;;;5094005;28;20024;-75
2021/08/22 03:23:12;;;;;;;8.75;3.88;;;22.90;91.10;;;;;;5093822;28;20046;-75
2021/08/22 03:25:38;;;;;;;5.18;4.25;;;22.90;90.70;;;;;;5093747;28;20024;-75
2021/08/22 03:28:04;;;;;;;6.25;4.78;;;22.90;90.70;;;;;;5093846;28;20024;-75
2021/08/22 03:30:30;;;;;;;8.68;4.38;;;22.90;90.70;;;;;;5093664;28;20483;-75
2021/08/22 03:32:56;;;;;;;7.35;4.35;;;22.90;90.80;;;;;;5075485;28;20189;-75
2021/08/22 03:35:21;;;;;;;7.53;4.13;;;22.90;90.80;;;;;;5093714;28;20434;-75
2021/08/22 03:37:47;;;;;;;7.55;4.35;;;22.90;90.80;;;;;;5075432;28;20645;-75
2021/08/22 03:40:13;;;;;;;7.82;4.00;;;22.90;90.90;;;;;;5093616;28;20047;-75
2021/08/22 03:42:39;;;;;;;7.30;4.20;;;22.90;90.90;;;;;;5093427;28;20020;-75
2021/08/22 03:45:05;;;;;;;6.22;4.30;;;22.90;91.00;;;;;;5093348;28;20081;-75
2021/08/22 03:47:31;;;;;;;9.75;4.40;;;22.90;91.10;;;;;;5093197;28;20103;-75
2021/08/22 03:49:57;;;;;;;8.13;4.22;;;22.90;91.10;;;;;;5075325;28;20115;-75
2021/08/22 03:52:23;;;;;;;5.70;4.20;;;22.90;91.10;;;;;;5093206;28;20078;-75
2021/08/22 03:54:48;;;;;;;7.15;4.35;;;22.90;91.10;;;;;;5075156;28;20016;-75
2021/08/22 03:57:14;;;;;;;6.97;3.83;;;22.90;91.20;;;;;;5093226;28;20028;-75
2021/08/22 03:59:40;;;;;;;9.00;4.10;;;22.90;91.20;;;;;;5089921;28;20035;-75
2021/08/22 04:02:06;;;;;;;5.53;4.28;;;22.80;91.30;;;;;;5093086;28;20059;-75
2021/08/22 04:04:32;;;;;;;4.50;4.10;;;22.80;91.50;;;;;;5074530;28;20027;-75
2021/08/22 04:06:58;;;;;;;8.18;4.93;;;22.80;91.60;;;;;;5092850;28;20028;-75
2021/08/22 04:09:25;;;;;;;4.80;4.22;;;22.80;91.60;;;;;;5093122;28;20085;-75
2021/08/22 04:11:56;;;;;;;5.55;4.35;;;22.80;91.70;;;;;;5092957;28;20024;-75
2021/08/22 04:14:22;;;;;;;6.60;4.15;;;22.80;91.60;;;;;;5092837;28;20023;-75
2021/08/22 04:16:48;;;;;;;5.03;3.90;;;22.80;91.80;;;;;;5092702;28;20403;-75
2021/08/22 04:19:15;;;;;;;4.78;4.30;;;22.70;91.80;;;;;;5092851;28;20053;-75
2021/08/22 04:21:41;;;;;;;5.18;4.50;;;22.70;92.10;;;;;;5092829;28;20024;-75
2021/08/22 04:24:08;;;;;;;7.13;4.53;;;22.60;92.00;;;;;;5092450;28;20484;-75
2021/08/22 04:26:35;;;;;;;8.13;5.05;;;22.60;92.00;;;;;;5092662;28;20476;-75
2021/08/22 04:29:01;;;;;;;5.80;4.18;;;22.60;92.10;;;;;;5092685;28;20038;-75
2021/08/22 04:31:27;;;;;;;7.50;4.63;;;22.60;92.30;;;;;;5074238;28;20020;-75
2021/08/22 04:33:53;;;;;;;6.00;4.00;;;22.70;92.10;;;;;;5092442;28;20078;-76
2021/08/22 04:36:18;;;;;;;4.40;4.10;;;22.70;92.20;;;;;;5092466;28;20020;-75
2021/08/22 04:38:44;;;;;;;9.32;4.53;;;22.60;92.20;;;;;;5092375;28;20024;-75
2021/08/22 04:41:17;;;;;;;7.28;4.47;;;22.60;92.30;;;;;;5092315;28;20020;-75
2021/08/22 04:43:43;;;;;;;5.05;4.40;;;22.60;92.30;;;;;;5092002;28;20032;-75
2021/08/22 04:46:08;;;;;;;6.82;4.20;;;22.60;92.40;;;;;;5092434;28;20028;-75
2021/08/22 04:48:34;;;;;;;5.50;4.82;;;22.60;92.40;;;;;;5092293;28;20044;-76
2021/08/22 04:51:00;;;;;;;4.63;4.22;;;22.60;92.40;;;;;;5092138;28;20012;-75
2021/08/22 04:53:25;;;;;;;7.28;4.03;;;22.50;92.60;;;;;;5073967;28;20020;-77
2021/08/22 04:55:51;;;;;;;6.03;4.30;;;22.50;92.60;;;;;;5091996;28;20049;-75
2021/08/22 04:58:17;;;;;;;7.85;4.90;;;22.50;92.70;;;;;;5092058;28;20093;-75
2021/08/22 05:00:42;;;;;;;6.70;4.72;;;22.50;92.70;;;;;;5092152;28;20031;-75
2021/08/22 05:03:08;;;;;;;4.88;4.18;;;22.50;92.70;;;;;;5091865;28;20111;-75
2021/08/22 05:05:34;;;;;;;4.75;4.32;;;22.50;92.80;;;;;;5091999;28;20023;-75
2021/08/22 05:07:59;;;;;;;4.22;3.85;;;22.50;92.80;;;;;;5073472;28;20412;-75
2021/08/22 05:10:25;;;;;;;6.22;4.15;;;22.50;92.80;;;;;;5091968;28;20028;-75
2021/08/22 05:12:51;;;;;;;5.50;4.15;;;22.50;92.70;;;;;;5091885;28;20020;-76
2021/08/22 05:15:17;;;;;;;8.90;5.20;;;22.50;92.70;;;;;;5073037;28;20493;-75
2021/08/22 05:17:42;;;;;;;6.05;4.68;;;22.60;92.80;;;;;;5091709;28;20498;-75
2021/08/22 05:20:08;;;;;;;6.63;4.50;;;22.60;92.80;;;;;;5091812;28;20027;-75
2021/08/22 05:22:34;;;;;;;8.77;5.20;;;22.60;92.80;;;;;;5091718;28;20507;-75
2021/08/22 05:25:00;;;;;;;6.50;4.38;;;22.70;92.60;;;;;;5091527;28;20028;-75
2021/08/22 05:27:26;;;;;;;5.65;4.40;;;22.70;92.70;;;;;;5091616;28;20539;-75
2021/08/22 05:29:52;;;;;;;6.68;4.45;;;22.70;92.70;;;;;;5091563;28;20471;-75
2021/08/22 05:32:17;;;;;;;13.25;4.65;;;22.80;92.60;;;;;;5091687;28;20020;-75
2021/08/22 05:34:43;;;;;;;5.47;4.25;;;22.80;92.50;;;;;;5091730;28;20059;-75
2021/08/22 05:37:09;;;;;;;6.78;4.20;;;22.80;92.50;;;;;;5091480;28;20028;-75
2021/08/22 05:39:34;;;;;;;8.38;4.95;;;22.90;92.30;;;;;;5091626;28;20032;-75
2021/08/22 05:42:00;;;;;;;5.07;4.20;;;22.90;92.30;;;;;;5091433;28;20028;-75
2021/08/22 05:44:26;;;;;;;8.30;5.40;;;23.00;92.30;;;;;;5091386;28;20483;-76
2021/08/22 05:46:52;;;;;;;5.50;4.25;;;23.00;92.30;;;;;;5091439;28;20055;-75
2021/08/22 05:49:17;;;;;;;7.50;4.32;;;23.10;92.20;;;;;;5091425;28;20032;-75
2021/08/22 05:51:45;;;;;;;6.40;3.90;;;23.10;92.30;;;;;;5091332;28;20028;-75
2021/08/22 05:54:11;;;;;;;6.72;4.40;;;23.20;92.20;;;;;;5091510;28;20017;-76
2021/08/22 05:56:36;;;;;;;7.60;4.35;;;23.20;92.10;;;;;;5091312;28;20137;-75
2021/08/22 05:59:02;;;;;;;4.03;3.63;;;23.30;92.10;;;;;;5073189;28;20055;-75
2021/08/22 06:01:28;;;;;;;9.38;4.45;;;23.30;92.20;;;;;;5091459;28;20028;-75
2021/08/22 06:03:54;;;;;;;6.75;4.70;;;23.40;92.10;;;;;;5091194;28;20036;-76
2021/08/22 06:06:20;;;;;;;7.63;4.35;;;23.40;91.70;;;;;;5090292;28;20028;-75
2021/08/22 06:08:45;;;;;;;10.10;3.75;;;23.50;91.90;;;;;;5088882;28;20157;-76
2021/08/22 06:11:11;;;;;;;8.35;4.38;;;23.60;91.80;;;;;;5091209;28;20400;-75
2021/08/22 06:13:37;;;;;;;11.07;4.38;;;23.60;91.90;;;;;;5091080;28;20028;-75
2021/08/22 06:16:03;;;;;;;6.53;4.53;;;23.70;91.80;;;;;;5091315;28;20012;-75
2021/08/22 06:18:29;;;;;;;5.18;4.15;;;23.70;91.80;;;;;;5072962;28;20603;-75
2021/08/22 06:20:55;;;;;;;13.45;3.90;;;23.80;91.80;;;;;;5091063;28;20028;-75
2021/08/22 06:23:21;;;;;;;4.97;4.50;;;23.90;91.50;;;;;;5091195;28;20028;-75
2021/08/22 06:25:46;;;;;;;6.95;4.10;;;24.00;91.40;;;;;;5091528;28;20028;-75
2021/08/22 06:28:15;;;;;;;6.07;4.38;;;24.00;91.30;;;;;;5094984;28;20020;-76
2021/08/22 06:30:42;;;;;;;4.40;4.00;;;24.10;91.40;;;;;;5095150;28;20052;-75
2021/08/22 06:33:09;;;;;;;5.30;3.85;;;24.20;91.30;;;;;;5095010;28;20021;-75
2021/08/22 06:35:35;;;;;;;7.70;4.10;;;24.20;91.20;;;;;;5094730;28;20077;-75
2021/08/22 06:38:00;;;;;;;6.68;3.75;;;24.30;91.20;;;;;;5094894;28;20020;-76
2021/08/22 06:40:26;;;;;;;4.90;3.75;;;24.40;91.00;;;;;;5094754;28;20042;-75
2021/08/22 06:42:52;;;;;;;5.90;4.35;;;24.40;90.80;;;;;;5094762;28;20028;-76
2021/08/22 06:45:18;;;;;;;4.93;3.55;;;24.50;90.60;;;;;;5094694;28;20032;-75
2021/08/22 06:47:46;;;;;;;4.32;3.45;;;24.60;90.30;;;;;;5076256;28;20161;-75
2021/08/22 06:50:13;;;;;;;5.82;3.65;;;24.60;90.60;;;;;;5094561;28;20024;-75
2021/08/22 06:52:39;;;;;;;4.20;3.80;;;24.70;90.70;;;;;;5095170;28;20407;-75
2021/08/22 06:55:05;;;;;;;3.75;3.45;;;24.70;91.80;;;;;;5095460;28;20028;-76
2021/08/22 06:57:31;;;;;;;4.30;3.75;;;24.80;92.00;;;;;;5095487;28;20468;-75
2021/08/22 06:59:57;;;;;;;4.97;3.88;;;24.80;91.90;;;;;;5095668;28;20024;-75
2021/08/22 07:02:22;;;;;;;4.15;3.25;;;24.90;91.70;;;;;;5095766;28;20031;-75
2021/08/22 07:04:48;;;;;;;2.70;2.50;;;24.90;90.70;;;;;;5095623;28;20452;-75
2021/08/22 07:07:14;;;;;;;4.43;3.83;;;25.00;87.10;;;;;;5095191;28;20047;-75
2021/08/22 07:09:39;;;;;;;3.85;3.55;;;25.00;86.90;;;;;;5095348;28;20028;-75
2021/08/22 07:12:05;;;;;;;4.47;3.20;;;25.10;90.20;;;;;;5095277;28;20062;-75
2021/08/22 07:14:31;;;;;;;3.25;3.03;;;25.10;90.50;;;;;;5095291;28;20028;-75
2021/08/22 07:16:57;;;;;;;3.03;2.83;;;25.20;88.50;;;;;;5095290;28;20047;-75
2021/08/22 07:19:23;;;;;;;5.07;3.15;;;25.30;89.50;;;;;;5095316;28;20034;-75
2021/08/22 07:21:48;;;;;;;4.90;3.00;;;25.30;86.70;;;;;;5095177;28;20031;-75
2021/08/22 07:24:14;;;;;;;6.82;3.03;;;25.40;86.40;;;;;;5095045;28;20056;-75
2021/08/22 07:26:40;;;;;;;3.70;2.80;;;25.40;85.00;;;;;;5095161;28;20051;-75
2021/08/22 07:29:06;;;;;;;3.38;2.55;;;25.50;83.40;;;;;;5076991;28;20468;-75
2021/08/22 07:31:32;;;;;;;2.97;2.65;;;25.60;80.20;;;;;;5076752;28;20020;-75
2021/08/22 07:33:59;;;;;;;4.15;2.55;;;25.70;78.90;;;;;;5094818;28;20020;-75
2021/08/22 07:36:24;;;;;;;3.72;3.08;;;25.80;79.80;;;;;;5076728;28;20116;-75
2021/08/22 07:38:50;;;;;;;2.63;2.42;;;25.80;78.70;;;;;;5094029;28;20634;-75
2021/08/22 07:41:16;;;;;;;2.70;2.50;;;25.90;78.50;;;;;;5094478;28;20020;-75
2021/08/22 07:43:42;;;;;;;4.70;3.00;;;26.00;78.70;;;;;;5094571;28;20107;-75
2021/08/22 07:46:08;;;;;;;5.70;2.88;;;26.00;80.00;;;;;;5094465;28;20044;-76
2021/08/22 07:48:33;;;;;;;3.38;2.92;;;26.10;78.40;;;;;;5094353;28;20059;-75
2021/08/22 07:50:59;;;;;;;3.80;2.95;;;26.20;80.20;;;;;;5094215;28;20420;-76
2021/08/22 07:53:25;;;;;;;4.15;2.67;;;26.10;78.90;;;;;;5094312;28;20031;-75
2021/08/22 07:55:51;;;;;;;3.63;3.20;;;26.10;78.00;;;;;;5076243;28;20411;-76
2021/08/22 07:58:17;;;;;;;4.80;2.70;;;26.10;79.10;;;;;;5093559;28;20017;-75
2021/08/22 08:00:42;;;;;;;3.30;3.10;;;26.20;80.30;;;;;;5093476;28;20028;-75
2021/08/22 08:03:08;;;;;;;5.97;2.35;;;26.10;80.60;;;;;;5093128;28;20506;-75
2021/08/22 08:05:34;;;;;;;3.13;2.90;;;26.20;81.00;;;;;;5093388;28;20020;-75
2021/08/22 08:08:00;;;;;;;4.50;3.00;;;26.20;81.60;;;;;;5092866;28;20416;-75
2021/08/22 08:10:26;;;;;;;4.53;2.83;;;26.20;80.80;;;;;;5074957;28;20510;-76
2021/08/22 08:12:53;;;;;;;5.68;3.42;;;26.30;81.20;;;;;;5071301;28;20501;-76
2021/08/22 08:15:18;;;;;;;4.22;3.10;;;26.20;81.80;;;;;;5071009;28;20099;-75
2021/08/22 08:17:45;;;;;;;6.03;3.28;;;26.30;79.90;;;;;;5053032;28;20167;-75
2021/08/22 08:20:11;;;;;;;3.22;2.88;;;26.30;79.30;;;;;;5080610;28;20020;-75
2021/08/22 08:22:38;;;;;;;4.00;2.85;;;26.30;78.90;;;;;;5090930;28;20028;-75
2021/08/22 08:25:04;;;;;;;3.70;2.97;;;26.30;77.90;;;;;;5090874;28;20025;-76
2021/08/22 08:27:30;;;;;;;3.78;2.72;;;26.40;77.70;;;;;;5090897;28;20020;-76
2021/08/22 08:29:55;;;;;;;4.63;3.10;;;26.40;79.20;;;;;;5092149;28;20020;-75
2021/08/22 08:32:21;;;;;;;3.42;3.13;;;26.40;79.30;;;;;;5092749;28;20540;-75
2021/08/22 08:34:48;;;;;;;3.70;3.30;;;26.50;79.90;;;;;;5092783;28;20024;-75
2021/08/22 08:37:14;;;;;;;3.90;3.50;;;26.50;79.20;;;;;;5092491;28;20046;-75
2021/08/22 08:39:40;;;;;;;3.80;3.20;;;26.60;78.30;;;;;;5092700;28;20024;-75
2021/08/22 08:42:23;;;;;;;3.78;3.47;;;26.50;78.60;;;;;;5092570;28;20020;-75
2021/08/22 08:44:52;;;;;;;6.90;3.38;;;26.50;78.90;;;;;;5092528;28;20054;-75
2021/08/22 08:47:19;;;;;;;3.55;3.25;;;26.50;78.20;;;;;;5092293;28;20069;-75
2021/08/22 08:49:50;;;;;;;3.25;2.95;;;26.60;77.70;;;;;;5073242;28;20024;-75
2021/08/22 08:52:19;;;;;;;7.00;3.15;;;26.60;78.50;;;;;;5073982;28;20055;-75
2021/08/22 08:55:07;;;;;;;3.20;2.88;;;26.60;77.10;;;;;;5074064;28;20020;-75
2021/08/22 08:57:34;;;;;;;4.00;2.97;;;26.60;76.10;;;;;;5092322;28;20034;-75
2021/08/22 09:00:00;;;;;;;5.90;3.47;;;26.80;78.50;;;;;;5092059;28;20020;-75
2021/08/22 09:02:25;;;;;;;3.45;3.20;;;26.80;78.60;;;;;;5092331;28;20103;-75
2021/08/22 09:05:12;;;;;;;4.07;3.17;;;26.90;78.00;;;;;;5092186;28;20043;-75
2021/08/22 09:08:16;;;;;;;8.40;3.30;;;26.90;77.60;;;;;;5091904;28;20040;-75
2021/08/22 09:11:03;;;;;;;3.78;3.58;;;26.90;79.60;;;;;;5092177;28;20031;-75
2021/08/22 09:13:56;;;;;;;6.70;3.53;;;27.00;79.70;;;;;;5092011;28;20028;-75
2021/08/22 09:16:59;;;;;;;5.00;3.90;;;27.00;78.90;;;;;;5092054;28;20032;-75
2021/08/22 09:19:44;;;;;;;4.72;3.67;;;27.00;79.00;;;;;;5090403;28;20454;-76
2021/08/22 09:22:47;;;;;;;5.03;3.53;;;27.00;77.60;;;;;;5091777;28;20024;-75
2021/08/22 09:25:50;;;;;;;3.88;3.45;;;26.90;78.00;;;;;;5091816;28;20028;-76
2021/08/22 09:28:52;;;;;;;5.07;3.70;;;26.90;80.80;;;;;;5091828;28;20028;-76
2021/08/22 09:31:55;;;;;;;3.60;3.30;;;26.90;80.70;;;;;;5091757;28;20549;-76
2021/08/22 09:34:58;;;;;;;4.13;3.38;;;27.10;79.20;;;;;;5073417;28;20031;-76
2021/08/22 09:38:01;;;;;;;4.78;3.30;;;27.20;79.50;;;;;;5091631;28;20035;-76
2021/08/22 09:40:36;;;;;;;7.68;3.40;;;27.20;79.20;;;;;;5091765;28;20020;-76
2021/08/22 09:43:26;;;;;;;6.20;3.38;;;27.10;78.50;;;;;;5091649;28;20051;-76
2021/08/22 09:46:11;;;;;;;5.18;3.30;;;27.10;76.80;;;;;;5091561;28;20020;-75
2021/08/22 09:48:58;;;;;;;4.45;4.03;;;27.20;77.10;;;;;;5091703;28;20032;-76
2021/08/22 09:52:01;;;;;;;6.85;3.45;;;27.20;77.00;;;;;;5091306;28;20109;-76
2021/08/22 09:55:03;;;;;;;3.80;3.30;;;27.30;81.40;;;;;;5073064;28;20035;-76
2021/08/22 09:58:06;;;;;;;8.48;4.03;;;27.40;78.10;;;;;;5091524;28;20471;-76
2021/08/22 10:01:13;;;;;;;4.25;3.65;;;27.40;79.20;;;;;;5091588;28;20388;-76
2021/08/22 10:03:57;;;;;;;4.88;3.65;;;27.70;77.90;;;;;;5067348;28;20036;-76
2021/08/22 10:06:39;;;;;;;8.27;3.70;;;27.70;76.10;;;;;;5095408;28;20069;-76
2021/08/22 10:09:04;;;;;;;;;;;27.80;75.70;;;;;;5074276;28;20411;-76
2021/08/22 10:11:54;;;;;;;4.50;3.10;;;27.70;75.60;;;;;;5075275;28;19911;-76
2021/08/22 10:14:20;;;;;;;3.65;3.28;;;27.70;77.20;;;;;;5070288;28;20022;-76
2021/08/22 10:16:50;;;;;;;4.38;3.72;;;27.90;77.50;;;;;;5073529;28;20492;-76
2021/08/22 10:19:21;;;;;;;5.82;3.70;;;27.90;76.60;;;;;;5070783;28;20081;-76
2021/08/22 10:22:38;;;;;;;3.78;3.47;;;27.90;76.50;;;;;;5053240;28;20082;-76
2021/08/22 10:25:18;;;;;;;4.05;3.28;;;27.90;77.30;;;;;;5041063;28;20048;-76
2021/08/22 10:27:49;;;;;;;6.78;3.55;;;28.00;76.00;;;;;;5053678;28;20025;-76
2021/08/22 10:30:14;;;;;;;4.15;3.70;;;28.00;77.40;;;;;;5054279;28;20049;-76
2021/08/22 10:32:58;;;;;;;4.45;4.05;;;28.10;77.80;;;;;;5053413;28;20087;-76
2021/08/22 10:35:28;;;;;;;5.38;4.13;;;28.20;73.30;;;;;;5053579;28;20079;-76
2021/08/22 10:37:54;;;;;;;6.68;3.88;;;28.30;73.40;;;;;;5054840;28;20496;-76
2021/08/22 10:40:26;;;;;;;4.65;4.10;;;28.40;74.00;;;;;;5054643;28;20025;-76
2021/08/22 10:42:59;;;;;;;9.55;4.15;;;28.50;75.70;;;;;;5051665;28;20037;-76
2021/08/22 10:45:40;;;;;;;4.05;3.60;;;28.60;74.20;;;;;;5063186;28;20029;-76
2021/08/22 10:48:07;;;;;;;4.05;3.65;;;28.60;73.20;;;;;;5069559;28;20040;-76
2021/08/22 10:51:07;;;;;;;3.95;3.50;;;28.70;71.80;;;;;;5069689;28;20538;-76
2021/08/22 10:53:33;;;;;;;8.05;4.15;;;28.70;72.50;;;;;;5068696;28;20090;-76
2021/08/22 10:56:19;;;;;;;8.50;3.88;;;28.90;73.00;;;;;;5070531;28;20530;-75
2021/08/22 10:59:03;;;;;;;6.47;3.92;;;29.00;71.30;;;;;;5070236;28;20028;-75
2021/08/22 11:01:34;;;;;;;4.93;3.70;;;29.20;73.10;;;;;;5068061;28;20055;-75
2021/08/22 11:04:05;;;;;;;5.10;4.00;;;29.10;73.40;;;;;;5069060;28;20035;-75
2021/08/22 11:06:32;;;;;;;4.25;3.85;;;29.10;70.50;;;;;;5070436;28;20320;-75
2021/08/22 11:08:58;;;;;;;3.45;3.15;;;29.20;74.90;;;;;;5087829;28;20052;-76
2021/08/22 11:11:24;;;;;;;5.50;3.60;;;29.20;73.90;;;;;;5089834;28;20024;-75
2021/08/22 11:13:55;;;;;;;4.90;3.70;;;29.30;73.40;;;;;;5089060;28;20024;-76
2021/08/22 11:16:36;;;;;;;7.43;4.38;;;29.40;70.00;;;;;;5088226;28;20035;-75
2021/08/22 11:19:04;;;;;;;6.28;3.65;;;29.40;71.00;;;;;;5089241;28;20032;-76
2021/08/22 11:21:30;;;;;;;5.55;3.85;;;29.50;70.90;;;;;;5089326;28;20038;-76
2021/08/22 11:24:02;;;;;;;5.30;3.83;;;29.60;71.20;;;;;;5089268;28;20028;-75
2021/08/22 11:26:29;;;;;;;4.85;4.20;;;29.60;68.20;;;;;;5071377;28;20031;-75
2021/08/22 11:28:59;;;;;;;3.92;3.63;;;29.60;69.90;;;;;;5089137;28;20066;-76
2021/08/22 11:31:34;;;;;;;3.90;3.60;;;29.70;69.30;;;;;;5089834;28;20395;-75
2021/08/22 11:34:13;;;;;;;7.00;4.07;;;29.80;70.30;;;;;;5090116;28;20497;-75
2021/08/22 11:36:40;;;;;;;11.90;3.80;;;29.80;73.50;;;;;;5088917;28;20454;-76
2021/08/22 11:39:14;;;;;;;4.32;3.58;;;29.80;71.20;;;;;;5069565;28;20074;-76
2021/08/22 11:41:45;;;;;;;4.72;4.32;;;29.80;72.00;;;;;;5088828;28;20028;-76
2021/08/22 11:44:11;;;;;;;5.35;3.45;;;30.10;70.40;;;;;;5089056;28;20107;-76
2021/08/22 11:46:37;;;;;;;4.13;3.65;;;30.20;68.00;;;;;;5089618;28;20107;-75
2021/08/22 11:49:03;;;;;;;4.70;3.58;;;30.20;64.40;;;;;;5088756;28;20121;-75
2021/08/22 11:51:30;;;;;;;5.35;4.00;;;30.30;66.30;;;;;;5089062;28;20059;-76
2021/08/22 11:53:56;;;;;;;3.70;3.22;;;30.30;66.30;;;;;;5089330;28;20020;-75
2021/08/22 11:56:25;;;;;;;3.78;3.38;;;30.40;68.20;;;;;;5088384;28;20032;-76
2021/08/22 11:58:51;;;;;;;4.03;3.72;;;30.50;67.60;;;;;;5087722;28;20047;-75
2021/08/22 12:01:21;;;;;;;8.80;4.05;;;30.50;68.00;;;;;;5088415;28;20032;-76
2021/08/22 12:03:57;;;;;;;4.30;3.80;;;30.60;64.30;;;;;;5087980;28;20032;-76
2021/08/22 12:06:23;;;;;;;7.20;3.97;;;30.60;67.20;;;;;;5087360;28;20024;-75
2021/08/22 12:08:49;;;;;;;6.70;3.97;;;30.70;65.30;;;;;;5087848;28;20403;-76
2021/08/22 12:11:22;;;;;;;4.00;3.38;;;30.80;65.90;;;;;;5087514;28;20043;-76
2021/08/22 12:13:49;;;;;;;4.47;3.38;;;30.70;65.10;;;;;;5066452;28;20027;-75
2021/08/22 12:16:24;;;;;;;3.92;3.63;;;30.70;65.40;;;;;;5089001;28;20063;-76
2021/08/22 12:18:50;;;;;;;7.70;3.75;;;30.60;64.60;;;;;;5089049;28;20099;-76
2021/08/22 12:21:18;;;;;;;4.30;3.60;;;30.70;63.90;;;;;;5086910;28;20131;-75
2021/08/22 12:23:49;;;;;;;5.43;3.30;;;30.70;60.30;;;;;;5085216;28;20027;-76
2021/08/22 12:26:27;;;;;;;3.88;3.58;;;30.70;60.00;;;;;;5088413;28;20054;-75
2021/08/22 12:29:14;;;;;;;3.83;3.53;;;30.70;59.50;;;;;;5088177;28;20020;-75
2021/08/22 12:31:42;;;;;;;5.15;3.90;;;30.80;60.90;;;;;;5069252;28;20020;-76
2021/08/22 12:34:09;;;;;;;6.15;3.55;;;30.90;61.20;;;;;;5070099;28;20032;-76
2021/08/22 12:36:41;;;;;;;5.00;3.42;;;30.90;61.60;;;;;;5069574;28;20350;-75
2021/08/22 12:39:10;;;;;;;4.93;3.78;;;31.00;63.30;;;;;;5087108;28;20059;-76
2021/08/22 12:41:44;;;;;;;4.07;3.55;;;31.10;65.30;;;;;;5087650;28;20099;-75
2021/08/22 12:44:18;;;;;;;3.88;3.58;;;31.20;64.20;;;;;;5070033;28;20077;-76
2021/08/22 12:46:53;;;;;;;5.70;3.33;;;31.20;61.40;;;;;;5088419;28;20487;-76
2021/08/22 12:49:20;;;;;;;3.90;3.60;;;31.40;60.90;;;;;;5088442;28;20048;-75
2021/08/22 12:51:47;;;;;;;4.63;3.50;;;31.40;61.40;;;;;;5087010;28;20387;-76
2021/08/22 12:54:13;;;;;;;4.03;3.70;;;31.40;61.30;;;;;;5087531;28;20020;-76
2021/08/22 12:56:39;;;;;;;3.70;3.40;;;31.50;60.50;;;;;;5088509;28;20396;-76
2021/08/22 12:59:04;;;;;;;5.47;3.53;;;31.40;58.30;;;;;;5069259;28;20031;-76
2021/08/22 13:01:31;;;;;;;5.75;3.85;;;31.50;59.30;;;;;;5088199;28;20066;-76